sensor_id;sensor_type;location;lat;lon;timestamp;P1;durP1;ratioP1;P2;durP2;ratioP2
82372;SDS011;72000;42.828;23.382;2023-08-31T00:00:29;4.55;;;1.52;;
82372;SDS011;72000;42.828;23.382;2023-08-31T00:02:57;3.83;;;1.40;;
82372;SDS011;72000;42.828;23.382;2023-08-31T00:05:22;3.08;;;1.20;;
82372;SDS011;72000;42.828;23.382;2023-08-31T00:07:50;4.45;;;1.50;;
82372;SDS011;72000;42.828;23.382;2023-08-31T00:10:16;4.13;;;1.20;;
82372;SDS011;72000;42.828;23.382;2023-08-31T00:12:42;3.60;;;1.30;;
82372;SDS011;72000;42.828;23.382;2023-08-31T00:15:09;3.72;;;1.30;;
82372;SDS011;72000;42.828;23.382;2023-08-31T00:17:35;3.30;;;1.33;;
82372;SDS011;72000;42.828;23.382;2023-08-31T00:20:00;4.35;;;1.40;;
82372;SDS011;72000;42.828;23.382;2023-08-31T00:22:27;5.18;;;1.35;;
82372;SDS011;72000;42.828;23.382;2023-08-31T00:24:53;4.60;;;1.40;;
82372;SDS011;72000;42.828;23.382;2023-08-31T00:27:19;5.00;;;1.30;;
82372;SDS011;72000;42.828;23.382;2023-08-31T00:29:46;5.13;;;1.80;;
82372;SDS011;72000;42.828;23.382;2023-08-31T00:32:15;4.38;;;1.40;;
82372;SDS011;72000;42.828;23.382;2023-08-31T00:34:44;3.65;;;1.60;;
82372;SDS011;72000;42.828;23.382;2023-08-31T00:37:10;5.43;;;1.60;;
82372;SDS011;72000;42.828;23.382;2023-08-31T00:39:35;3.92;;;1.60;;
82372;SDS011;72000;42.828;23.382;2023-08-31T00:42:01;5.93;;;1.52;;
82372;SDS011;72000;42.828;23.382;2023-08-31T00:44:27;6.13;;;1.50;;
82372;SDS011;72000;42.828;23.382;2023-08-31T00:46:52;6.05;;;1.58;;
82372;SDS011;72000;42.828;23.382;2023-08-31T00:49:18;4.75;;;1.40;;
82372;SDS011;72000;42.828;23.382;2023-08-31T00:51:44;4.90;;;1.50;;
82372;SDS011;72000;42.828;23.382;2023-08-31T00:54:14;3.80;;;1.30;;
82372;SDS011;72000;42.828;23.382;2023-08-31T00:56:41;4.38;;;1.38;;
82372;SDS011;72000;42.828;23.382;2023-08-31T00:59:06;4.15;;;1.33;;
82372;SDS011;72000;42.828;23.382;2023-08-31T01:01:36;4.13;;;1.42;;
82372;SDS011;72000;42.828;23.382;2023-08-31T01:10:07;4.80;;;1.20;;
82372;SDS011;72000;42.828;23.382;2023-08-31T01:12:44;3.95;;;1.30;;
82372;SDS011;72000;42.828;23.382;2023-08-31T01:15:15;4.88;;;1.40;;
82372;SDS011;72000;42.828;23.382;2023-08-31T01:17:51;3.97;;;1.40;;
82372;SDS011;72000;42.828;23.382;2023-08-31T01:20:52;5.03;;;1.40;;
82372;SDS011;72000;42.828;23.382;2023-08-31T01:23:13;4.13;;;1.48;;
82372;SDS011;72000;42.828;23.382;2023-08-31T01:25:41;4.95;;;1.40;;
82372;SDS011;72000;42.828;23.382;2023-08-31T01:28:08;4.95;;;1.52;;
82372;SDS011;72000;42.828;23.382;2023-08-31T01:30:35;3.83;;;1.50;;
82372;SDS011;72000;42.828;23.382;2023-08-31T01:35:27;4.13;;;1.60;;
82372;SDS011;72000;42.828;23.382;2023-08-31T01:37:58;4.55;;;1.40;;
82372;SDS011;72000;42.828;23.382;2023-08-31T01:40:31;4.82;;;1.33;;
82372;SDS011;72000;42.828;23.382;2023-08-31T01:43:03;4.57;;;1.60;;
82372;SDS011;72000;42.828;23.382;2023-08-31T01:45:30;3.33;;;1.38;;
82372;SDS011;72000;42.828;23.382;2023-08-31T01:47:56;4.13;;;1.38;;
82372;SDS011;72000;42.828;23.382;2023-08-31T01:52:48;3.28;;;1.30;;
82372;SDS011;72000;42.828;23.382;2023-08-31T01:55:13;5.57;;;1.58;;
82372;SDS011;72000;42.828;23.382;2023-08-31T01:57:41;4.78;;;1.20;;
82372;SDS011;72000;42.828;23.382;2023-08-31T02:00:07;3.55;;;1.35;;
82372;SDS011;72000;42.828;23.382;2023-08-31T02:02:35;6.20;;;1.80;;
82372;SDS011;72000;42.828;23.382;2023-08-31T02:05:01;3.75;;;1.30;;
82372;SDS011;72000;42.828;23.382;2023-08-31T02:07:28;4.22;;;1.42;;
82372;SDS011;72000;42.828;23.382;2023-08-31T02:09:53;5.45;;;1.60;;
82372;SDS011;72000;42.828;23.382;2023-08-31T02:12:19;4.00;;;1.40;;
82372;SDS011;72000;42.828;23.382;2023-08-31T02:14:44;4.07;;;1.45;;
82372;SDS011;72000;42.828;23.382;2023-08-31T02:17:10;3.33;;;1.30;;
82372;SDS011;72000;42.828;23.382;2023-08-31T02:19:35;4.03;;;1.35;;
82372;SDS011;72000;42.828;23.382;2023-08-31T02:22:01;4.95;;;1.40;;
82372;SDS011;72000;42.828;23.382;2023-08-31T02:24:26;3.92;;;1.23;;
82372;SDS011;72000;42.828;23.382;2023-08-31T02:26:52;3.35;;;1.13;;
82372;SDS011;72000;42.828;23.382;2023-08-31T02:29:18;8.52;;;1.60;;
82372;SDS011;72000;42.828;23.382;2023-08-31T02:34:10;3.88;;;1.30;;
82372;SDS011;72000;42.828;23.382;2023-08-31T02:39:01;5.63;;;1.30;;
82372;SDS011;72000;42.828;23.382;2023-08-31T02:41:29;4.40;;;1.38;;
82372;SDS011;72000;42.828;23.382;2023-08-31T02:43:55;5.45;;;1.40;;
82372;SDS011;72000;42.828;23.382;2023-08-31T02:48:46;3.08;;;1.10;;
82372;SDS011;72000;42.828;23.382;2023-08-31T02:51:12;3.85;;;1.35;;
82372;SDS011;72000;42.828;23.382;2023-08-31T02:56:03;5.47;;;1.23;;
82372;SDS011;72000;42.828;23.382;2023-08-31T03:00:54;3.03;;;1.17;;
82372;SDS011;72000;42.828;23.382;2023-08-31T03:03:21;5.13;;;1.23;;
82372;SDS011;72000;42.828;23.382;2023-08-31T03:08:12;4.40;;;1.20;;
82372;SDS011;72000;42.828;23.382;2023-08-31T03:10:38;5.03;;;1.42;;
82372;SDS011;72000;42.828;23.382;2023-08-31T03:13:04;4.95;;;1.40;;
82372;SDS011;72000;42.828;23.382;2023-08-31T03:15:33;5.93;;;1.55;;
82372;SDS011;72000;42.828;23.382;2023-08-31T03:17:59;3.22;;;1.23;;
82372;SDS011;72000;42.828;23.382;2023-08-31T03:22:50;4.18;;;1.38;;
82372;SDS011;72000;42.828;23.382;2023-08-31T03:25:16;4.63;;;1.15;;
82372;SDS011;72000;42.828;23.382;2023-08-31T03:27:42;5.28;;;1.40;;
82372;SDS011;72000;42.828;23.382;2023-08-31T03:30:08;6.00;;;1.35;;
82372;SDS011;72000;42.828;23.382;2023-08-31T03:32:34;4.30;;;1.40;;
82372;SDS011;72000;42.828;23.382;2023-08-31T03:37:27;5.90;;;1.55;;
82372;SDS011;72000;42.828;23.382;2023-08-31T03:42:18;5.88;;;1.30;;
82372;SDS011;72000;42.828;23.382;2023-08-31T03:47:09;2.83;;;1.00;;
82372;SDS011;72000;42.828;23.382;2023-08-31T03:49:34;2.92;;;1.08;;
82372;SDS011;72000;42.828;23.382;2023-08-31T03:54:25;4.03;;;1.25;;
82372;SDS011;72000;42.828;23.382;2023-08-31T03:56:51;3.40;;;1.20;;
82372;SDS011;72000;42.828;23.382;2023-08-31T03:59:17;3.55;;;1.20;;
82372;SDS011;72000;42.828;23.382;2023-08-31T04:01:43;3.70;;;1.25;;
82372;SDS011;72000;42.828;23.382;2023-08-31T04:06:34;4.78;;;1.20;;
82372;SDS011;72000;42.828;23.382;2023-08-31T04:09:00;3.38;;;1.33;;
82372;SDS011;72000;42.828;23.382;2023-08-31T04:11:25;4.00;;;1.15;;
82372;SDS011;72000;42.828;23.382;2023-08-31T04:13:51;2.90;;;1.10;;
82372;SDS011;72000;42.828;23.382;2023-08-31T04:18:43;3.58;;;1.17;;
82372;SDS011;72000;42.828;23.382;2023-08-31T04:21:09;4.30;;;1.30;;
82372;SDS011;72000;42.828;23.382;2023-08-31T04:26:00;5.80;;;1.50;;
82372;SDS011;72000;42.828;23.382;2023-08-31T04:30:51;5.40;;;1.38;;
82372;SDS011;72000;42.828;23.382;2023-08-31T04:33:17;6.22;;;1.50;;
82372;SDS011;72000;42.828;23.382;2023-08-31T04:35:43;4.40;;;1.40;;
82372;SDS011;72000;42.828;23.382;2023-08-31T04:40:35;4.57;;;1.27;;
82372;SDS011;72000;42.828;23.382;2023-08-31T04:43:01;4.28;;;1.33;;
82372;SDS011;72000;42.828;23.382;2023-08-31T04:45:28;4.28;;;1.40;;
82372;SDS011;72000;42.828;23.382;2023-08-31T04:50:19;3.20;;;1.20;;
82372;SDS011;72000;42.828;23.382;2023-08-31T04:55:12;4.35;;;1.50;;
82372;SDS011;72000;42.828;23.382;2023-08-31T04:57:38;6.15;;;1.60;;
82372;SDS011;72000;42.828;23.382;2023-08-31T05:02:30;4.25;;;1.60;;
82372;SDS011;72000;42.828;23.382;2023-08-31T05:04:55;3.80;;;1.20;;
82372;SDS011;72000;42.828;23.382;2023-08-31T05:07:21;3.88;;;1.27;;
82372;SDS011;72000;42.828;23.382;2023-08-31T05:09:46;4.40;;;1.27;;
82372;SDS011;72000;42.828;23.382;2023-08-31T05:12:12;2.90;;;1.10;;
82372;SDS011;72000;42.828;23.382;2023-08-31T05:17:05;3.70;;;1.35;;
82372;SDS011;72000;42.828;23.382;2023-08-31T05:19:31;3.70;;;1.67;;
82372;SDS011;72000;42.828;23.382;2023-08-31T05:24:22;3.72;;;1.38;;
82372;SDS011;72000;42.828;23.382;2023-08-31T05:26:48;4.05;;;1.63;;
82372;SDS011;72000;42.828;23.382;2023-08-31T05:29:14;4.32;;;1.38;;
82372;SDS011;72000;42.828;23.382;2023-08-31T05:34:05;4.95;;;1.45;;
82372;SDS011;72000;42.828;23.382;2023-08-31T05:36:31;5.05;;;1.67;;
82372;SDS011;72000;42.828;23.382;2023-08-31T05:41:22;3.53;;;1.45;;
82372;SDS011;72000;42.828;23.382;2023-08-31T05:43:48;6.90;;;1.80;;
82372;SDS011;72000;42.828;23.382;2023-08-31T05:46:13;7.15;;;2.00;;
82372;SDS011;72000;42.828;23.382;2023-08-31T05:51:04;7.78;;;1.83;;
82372;SDS011;72000;42.828;23.382;2023-08-31T05:53:30;5.45;;;1.90;;
82372;SDS011;72000;42.828;23.382;2023-08-31T05:55:57;6.45;;;1.55;;
82372;SDS011;72000;42.828;23.382;2023-08-31T06:00:54;5.13;;;1.50;;
82372;SDS011;72000;42.828;23.382;2023-08-31T06:03:19;4.10;;;1.50;;
82372;SDS011;72000;42.828;23.382;2023-08-31T06:08:10;3.95;;;1.45;;
82372;SDS011;72000;42.828;23.382;2023-08-31T06:10:36;3.85;;;1.58;;
82372;SDS011;72000;42.828;23.382;2023-08-31T06:13:01;4.93;;;1.55;;
82372;SDS011;72000;42.828;23.382;2023-08-31T06:15:28;4.50;;;1.52;;
82372;SDS011;72000;42.828;23.382;2023-08-31T06:20:19;4.00;;;1.70;;
82372;SDS011;72000;42.828;23.382;2023-08-31T06:22:44;6.10;;;1.70;;
82372;SDS011;72000;42.828;23.382;2023-08-31T06:25:10;4.22;;;1.63;;
82372;SDS011;72000;42.828;23.382;2023-08-31T06:27:36;5.82;;;1.55;;
82372;SDS011;72000;42.828;23.382;2023-08-31T06:30:02;4.60;;;1.60;;
82372;SDS011;72000;42.828;23.382;2023-08-31T06:32:28;8.18;;;1.77;;
82372;SDS011;72000;42.828;23.382;2023-08-31T06:34:54;7.30;;;1.70;;
82372;SDS011;72000;42.828;23.382;2023-08-31T06:37:19;6.85;;;1.60;;
82372;SDS011;72000;42.828;23.382;2023-08-31T06:39:45;5.03;;;1.58;;
82372;SDS011;72000;42.828;23.382;2023-08-31T06:42:11;7.40;;;1.88;;
82372;SDS011;72000;42.828;23.382;2023-08-31T06:44:36;6.90;;;1.70;;
82372;SDS011;72000;42.828;23.382;2023-08-31T06:47:02;4.63;;;1.60;;
82372;SDS011;72000;42.828;23.382;2023-08-31T06:49:28;5.18;;;1.80;;
82372;SDS011;72000;42.828;23.382;2023-08-31T06:51:55;6.03;;;1.63;;
82372;SDS011;72000;42.828;23.382;2023-08-31T06:54:20;6.80;;;1.90;;
82372;SDS011;72000;42.828;23.382;2023-08-31T06:56:46;6.00;;;1.90;;
82372;SDS011;72000;42.828;23.382;2023-08-31T06:59:12;5.70;;;1.85;;
82372;SDS011;72000;42.828;23.382;2023-08-31T07:01:38;5.88;;;2.10;;
82372;SDS011;72000;42.828;23.382;2023-08-31T07:04:03;5.50;;;1.70;;
82372;SDS011;72000;42.828;23.382;2023-08-31T07:06:29;4.95;;;1.70;;
82372;SDS011;72000;42.828;23.382;2023-08-31T07:08:55;6.13;;;1.88;;
82372;SDS011;72000;42.828;23.382;2023-08-31T07:11:20;7.78;;;2.35;;
82372;SDS011;72000;42.828;23.382;2023-08-31T07:13:46;4.63;;;1.95;;
82372;SDS011;72000;42.828;23.382;2023-08-31T07:16:12;5.78;;;2.00;;
82372;SDS011;72000;42.828;23.382;2023-08-31T07:18:37;5.82;;;2.00;;
82372;SDS011;72000;42.828;23.382;2023-08-31T07:21:03;4.40;;;1.70;;
82372;SDS011;72000;42.828;23.382;2023-08-31T07:23:30;8.80;;;2.00;;
82372;SDS011;72000;42.828;23.382;2023-08-31T07:25:59;5.18;;;1.90;;
82372;SDS011;72000;42.828;23.382;2023-08-31T07:28:25;7.53;;;2.20;;
82372;SDS011;72000;42.828;23.382;2023-08-31T07:31:04;6.93;;;2.10;;
82372;SDS011;72000;42.828;23.382;2023-08-31T07:33:31;5.47;;;1.73;;
82372;SDS011;72000;42.828;23.382;2023-08-31T07:35:58;4.68;;;1.73;;
82372;SDS011;72000;42.828;23.382;2023-08-31T07:38:24;8.68;;;2.28;;
82372;SDS011;72000;42.828;23.382;2023-08-31T07:40:50;6.95;;;1.90;;
82372;SDS011;72000;42.828;23.382;2023-08-31T07:43:17;5.75;;;1.80;;
82372;SDS011;72000;42.828;23.382;2023-08-31T07:45:42;6.95;;;2.00;;
82372;SDS011;72000;42.828;23.382;2023-08-31T07:48:08;6.80;;;1.73;;
82372;SDS011;72000;42.828;23.382;2023-08-31T07:50:34;6.07;;;1.90;;
82372;SDS011;72000;42.828;23.382;2023-08-31T07:52:59;6.85;;;2.03;;
82372;SDS011;72000;42.828;23.382;2023-08-31T07:55:25;4.45;;;1.65;;
82372;SDS011;72000;42.828;23.382;2023-08-31T07:57:51;6.57;;;1.80;;
82372;SDS011;72000;42.828;23.382;2023-08-31T08:00:17;5.78;;;1.85;;
82372;SDS011;72000;42.828;23.382;2023-08-31T08:02:44;5.50;;;1.90;;
82372;SDS011;72000;42.828;23.382;2023-08-31T08:05:11;5.25;;;1.55;;
82372;SDS011;72000;42.828;23.382;2023-08-31T08:07:36;5.28;;;1.90;;
82372;SDS011;72000;42.828;23.382;2023-08-31T08:10:02;5.45;;;1.60;;
82372;SDS011;72000;42.828;23.382;2023-08-31T08:12:36;4.57;;;1.50;;
82372;SDS011;72000;42.828;23.382;2023-08-31T08:15:02;3.90;;;1.48;;
82372;SDS011;72000;42.828;23.382;2023-08-31T08:17:28;4.10;;;1.70;;
82372;SDS011;72000;42.828;23.382;2023-08-31T08:19:53;4.63;;;1.55;;
82372;SDS011;72000;42.828;23.382;2023-08-31T08:22:19;4.50;;;1.90;;
82372;SDS011;72000;42.828;23.382;2023-08-31T08:24:45;5.78;;;1.60;;
82372;SDS011;72000;42.828;23.382;2023-08-31T08:27:10;4.88;;;1.92;;
82372;SDS011;72000;42.828;23.382;2023-08-31T08:29:36;4.82;;;1.70;;
82372;SDS011;72000;42.828;23.382;2023-08-31T08:32:02;5.50;;;2.00;;
82372;SDS011;72000;42.828;23.382;2023-08-31T08:34:28;5.65;;;2.03;;
82372;SDS011;72000;42.828;23.382;2023-08-31T08:36:54;7.38;;;2.10;;
82372;SDS011;72000;42.828;23.382;2023-08-31T08:39:19;5.22;;;1.90;;
82372;SDS011;72000;42.828;23.382;2023-08-31T08:41:45;6.15;;;2.03;;
82372;SDS011;72000;42.828;23.382;2023-08-31T08:44:11;5.18;;;2.00;;
82372;SDS011;72000;42.828;23.382;2023-08-31T08:46:38;5.60;;;2.20;;
82372;SDS011;72000;42.828;23.382;2023-08-31T08:49:04;5.13;;;2.10;;
82372;SDS011;72000;42.828;23.382;2023-08-31T08:51:31;7.47;;;2.50;;
82372;SDS011;72000;42.828;23.382;2023-08-31T08:53:58;5.78;;;2.47;;
82372;SDS011;72000;42.828;23.382;2023-08-31T08:56:24;5.47;;;2.38;;
82372;SDS011;72000;42.828;23.382;2023-08-31T08:58:50;6.07;;;2.40;;
82372;SDS011;72000;42.828;23.382;2023-08-31T09:01:15;7.22;;;2.40;;
82372;SDS011;72000;42.828;23.382;2023-08-31T09:03:43;5.55;;;2.40;;
82372;SDS011;72000;42.828;23.382;2023-08-31T09:06:09;6.10;;;2.40;;
82372;SDS011;72000;42.828;23.382;2023-08-31T09:08:35;6.30;;;2.75;;
82372;SDS011;72000;42.828;23.382;2023-08-31T09:11:02;5.75;;;2.88;;
82372;SDS011;72000;42.828;23.382;2023-08-31T09:13:28;6.72;;;2.78;;
82372;SDS011;72000;42.828;23.382;2023-08-31T09:15:54;5.82;;;2.60;;
82372;SDS011;72000;42.828;23.382;2023-08-31T09:18:31;5.82;;;2.65;;
82372;SDS011;72000;42.828;23.382;2023-08-31T09:20:57;5.82;;;2.50;;
82372;SDS011;72000;42.828;23.382;2023-08-31T09:23:25;5.82;;;2.30;;
82372;SDS011;72000;42.828;23.382;2023-08-31T09:25:52;6.25;;;2.90;;
82372;SDS011;72000;42.828;23.382;2023-08-31T09:28:19;6.55;;;2.38;;
82372;SDS011;72000;42.828;23.382;2023-08-31T09:30:46;7.03;;;2.58;;
82372;SDS011;72000;42.828;23.382;2023-08-31T09:33:17;6.03;;;2.92;;
82372;SDS011;72000;42.828;23.382;2023-08-31T09:35:51;6.20;;;3.05;;
82372;SDS011;72000;42.828;23.382;2023-08-31T09:38:18;6.75;;;2.90;;
82372;SDS011;72000;42.828;23.382;2023-08-31T09:40:44;6.57;;;2.80;;
82372;SDS011;72000;42.828;23.382;2023-08-31T09:43:09;8.65;;;2.88;;
82372;SDS011;72000;42.828;23.382;2023-08-31T09:45:35;6.82;;;2.97;;
82372;SDS011;72000;42.828;23.382;2023-08-31T09:48:03;5.35;;;2.83;;
82372;SDS011;72000;42.828;23.382;2023-08-31T09:50:29;6.05;;;2.90;;
82372;SDS011;72000;42.828;23.382;2023-08-31T09:52:59;7.03;;;2.70;;
82372;SDS011;72000;42.828;23.382;2023-08-31T09:55:27;6.45;;;3.10;;
82372;SDS011;72000;42.828;23.382;2023-08-31T09:57:54;6.15;;;2.90;;
82372;SDS011;72000;42.828;23.382;2023-08-31T10:00:22;6.90;;;3.20;;
82372;SDS011;72000;42.828;23.382;2023-08-31T10:02:48;8.65;;;3.08;;
82372;SDS011;72000;42.828;23.382;2023-08-31T10:05:14;6.25;;;2.80;;
82372;SDS011;72000;42.828;23.382;2023-08-31T10:07:41;6.63;;;3.10;;
82372;SDS011;72000;42.828;23.382;2023-08-31T10:10:07;8.52;;;2.72;;
82372;SDS011;72000;42.828;23.382;2023-08-31T10:12:34;5.82;;;2.97;;
82372;SDS011;72000;42.828;23.382;2023-08-31T10:15:00;6.30;;;3.28;;
82372;SDS011;72000;42.828;23.382;2023-08-31T10:17:27;7.13;;;3.30;;
82372;SDS011;72000;42.828;23.382;2023-08-31T10:19:52;5.88;;;3.17;;
82372;SDS011;72000;42.828;23.382;2023-08-31T10:22:19;6.18;;;3.00;;
82372;SDS011;72000;42.828;23.382;2023-08-31T10:25:04;6.10;;;3.38;;
82372;SDS011;72000;42.828;23.382;2023-08-31T10:27:39;6.43;;;3.20;;
82372;SDS011;72000;42.828;23.382;2023-08-31T10:30:15;5.95;;;2.92;;
82372;SDS011;72000;42.828;23.382;2023-08-31T10:33:01;7.55;;;3.30;;
82372;SDS011;72000;42.828;23.382;2023-08-31T10:38:13;7.13;;;3.58;;
82372;SDS011;72000;42.828;23.382;2023-08-31T10:43:42;7.28;;;3.70;;
82372;SDS011;72000;42.828;23.382;2023-08-31T10:46:15;6.05;;;3.75;;
82372;SDS011;72000;42.828;23.382;2023-08-31T10:48:51;7.03;;;3.40;;
82372;SDS011;72000;42.828;23.382;2023-08-31T10:51:17;6.05;;;3.35;;
82372;SDS011;72000;42.828;23.382;2023-08-31T10:53:45;7.32;;;3.55;;
82372;SDS011;72000;42.828;23.382;2023-08-31T10:56:12;7.22;;;3.20;;
82372;SDS011;72000;42.828;23.382;2023-08-31T10:58:37;6.72;;;3.55;;
82372;SDS011;72000;42.828;23.382;2023-08-31T11:01:03;6.28;;;3.13;;
82372;SDS011;72000;42.828;23.382;2023-08-31T11:03:31;7.40;;;3.35;;
82372;SDS011;72000;42.828;23.382;2023-08-31T11:05:57;6.20;;;3.10;;
82372;SDS011;72000;42.828;23.382;2023-08-31T11:08:23;7.30;;;3.47;;
82372;SDS011;72000;42.828;23.382;2023-08-31T11:10:50;6.20;;;2.92;;
82372;SDS011;72000;42.828;23.382;2023-08-31T11:13:18;5.80;;;2.83;;
82372;SDS011;72000;42.828;23.382;2023-08-31T11:15:47;6.28;;;3.08;;
82372;SDS011;72000;42.828;23.382;2023-08-31T11:18:13;5.90;;;2.70;;
82372;SDS011;72000;42.828;23.382;2023-08-31T11:20:43;6.63;;;2.90;;
82372;SDS011;72000;42.828;23.382;2023-08-31T11:23:09;4.82;;;2.58;;
82372;SDS011;72000;42.828;23.382;2023-08-31T11:25:35;6.38;;;3.03;;
82372;SDS011;72000;42.828;23.382;2023-08-31T11:28:05;5.22;;;2.42;;
82372;SDS011;72000;42.828;23.382;2023-08-31T11:30:32;6.85;;;2.80;;
82372;SDS011;72000;42.828;23.382;2023-08-31T11:33:05;5.68;;;2.55;;
82372;SDS011;72000;42.828;23.382;2023-08-31T11:35:35;6.55;;;2.70;;
82372;SDS011;72000;42.828;23.382;2023-08-31T11:38:02;5.68;;;2.70;;
82372;SDS011;72000;42.828;23.382;2023-08-31T11:40:31;6.78;;;2.75;;
82372;SDS011;72000;42.828;23.382;2023-08-31T11:42:57;5.30;;;2.58;;
82372;SDS011;72000;42.828;23.382;2023-08-31T11:45:23;5.93;;;2.95;;
82372;SDS011;72000;42.828;23.382;2023-08-31T11:47:49;5.68;;;2.78;;
82372;SDS011;72000;42.828;23.382;2023-08-31T11:50:15;5.07;;;2.47;;
82372;SDS011;72000;42.828;23.382;2023-08-31T11:52:41;5.55;;;2.20;;
82372;SDS011;72000;42.828;23.382;2023-08-31T11:55:10;4.93;;;2.50;;
82372;SDS011;72000;42.828;23.382;2023-08-31T11:57:37;5.47;;;2.45;;
82372;SDS011;72000;42.828;23.382;2023-08-31T12:00:03;5.35;;;2.67;;
82372;SDS011;72000;42.828;23.382;2023-08-31T12:02:34;4.97;;;2.30;;
82372;SDS011;72000;42.828;23.382;2023-08-31T12:05:00;4.85;;;2.22;;
82372;SDS011;72000;42.828;23.382;2023-08-31T12:07:25;5.00;;;2.40;;
82372;SDS011;72000;42.828;23.382;2023-08-31T12:09:51;5.80;;;2.38;;
82372;SDS011;72000;42.828;23.382;2023-08-31T12:12:20;4.82;;;2.42;;
82372;SDS011;72000;42.828;23.382;2023-08-31T12:14:46;6.88;;;2.63;;
82372;SDS011;72000;42.828;23.382;2023-08-31T12:17:11;5.47;;;2.58;;
82372;SDS011;72000;42.828;23.382;2023-08-31T12:19:37;6.18;;;2.30;;
82372;SDS011;72000;42.828;23.382;2023-08-31T12:22:06;4.95;;;2.15;;
82372;SDS011;72000;42.828;23.382;2023-08-31T12:24:41;5.68;;;2.60;;
82372;SDS011;72000;42.828;23.382;2023-08-31T12:27:07;5.47;;;2.65;;
82372;SDS011;72000;42.828;23.382;2023-08-31T12:29:33;6.13;;;2.50;;
82372;SDS011;72000;42.828;23.382;2023-08-31T12:31:59;5.57;;;2.55;;
82372;SDS011;72000;42.828;23.382;2023-08-31T12:34:24;4.57;;;2.38;;
82372;SDS011;72000;42.828;23.382;2023-08-31T12:36:51;4.60;;;2.35;;
82372;SDS011;72000;42.828;23.382;2023-08-31T12:39:17;5.78;;;2.75;;
82372;SDS011;72000;42.828;23.382;2023-08-31T12:41:43;4.53;;;2.28;;
82372;SDS011;72000;42.828;23.382;2023-08-31T12:44:09;4.18;;;2.20;;
82372;SDS011;72000;42.828;23.382;2023-08-31T12:46:34;5.07;;;2.25;;
82372;SDS011;72000;42.828;23.382;2023-08-31T12:49:00;4.70;;;2.40;;
82372;SDS011;72000;42.828;23.382;2023-08-31T12:51:28;5.97;;;2.28;;
82372;SDS011;72000;42.828;23.382;2023-08-31T12:53:54;4.60;;;2.25;;
82372;SDS011;72000;42.828;23.382;2023-08-31T12:56:19;6.18;;;2.53;;
82372;SDS011;72000;42.828;23.382;2023-08-31T12:58:48;5.40;;;2.60;;
82372;SDS011;72000;42.828;23.382;2023-08-31T13:01:18;5.28;;;2.25;;
82372;SDS011;72000;42.828;23.382;2023-08-31T13:03:44;6.03;;;2.47;;
82372;SDS011;72000;42.828;23.382;2023-08-31T13:06:10;5.65;;;2.33;;
82372;SDS011;72000;42.828;23.382;2023-08-31T13:08:36;5.75;;;2.45;;
82372;SDS011;72000;42.828;23.382;2023-08-31T13:11:02;4.82;;;2.53;;
82372;SDS011;72000;42.828;23.382;2023-08-31T13:13:30;5.90;;;2.67;;
82372;SDS011;72000;42.828;23.382;2023-08-31T13:15:56;8.60;;;2.70;;
82372;SDS011;72000;42.828;23.382;2023-08-31T13:18:22;5.20;;;2.40;;
82372;SDS011;72000;42.828;23.382;2023-08-31T13:20:48;5.18;;;2.25;;
82372;SDS011;72000;42.828;23.382;2023-08-31T13:23:18;4.75;;;2.42;;
82372;SDS011;72000;42.828;23.382;2023-08-31T13:25:44;6.18;;;2.65;;
82372;SDS011;72000;42.828;23.382;2023-08-31T13:28:10;6.22;;;2.30;;
82372;SDS011;72000;42.828;23.382;2023-08-31T13:30:35;4.75;;;2.33;;
82372;SDS011;72000;42.828;23.382;2023-08-31T13:33:01;6.88;;;2.20;;
82372;SDS011;72000;42.828;23.382;2023-08-31T13:35:29;5.95;;;2.40;;
82372;SDS011;72000;42.828;23.382;2023-08-31T13:37:55;5.45;;;2.20;;
82372;SDS011;72000;42.828;23.382;2023-08-31T13:40:21;5.05;;;2.20;;
82372;SDS011;72000;42.828;23.382;2023-08-31T13:42:56;6.05;;;2.38;;
82372;SDS011;72000;42.828;23.382;2023-08-31T13:45:28;5.10;;;2.17;;
82372;SDS011;72000;42.828;23.382;2023-08-31T13:47:58;5.13;;;2.60;;
82372;SDS011;72000;42.828;23.382;2023-08-31T13:50:29;5.07;;;2.00;;
82372;SDS011;72000;42.828;23.382;2023-08-31T13:52:55;4.60;;;2.15;;
82372;SDS011;72000;42.828;23.382;2023-08-31T13:55:21;5.15;;;2.30;;
82372;SDS011;72000;42.828;23.382;2023-08-31T13:57:48;6.32;;;2.28;;
82372;SDS011;72000;42.828;23.382;2023-08-31T14:00:14;5.03;;;2.30;;
82372;SDS011;72000;42.828;23.382;2023-08-31T14:02:41;5.32;;;2.70;;
82372;SDS011;72000;42.828;23.382;2023-08-31T14:05:08;5.60;;;2.30;;
82372;SDS011;72000;42.828;23.382;2023-08-31T14:07:35;4.60;;;2.30;;
82372;SDS011;72000;42.828;23.382;2023-08-31T14:10:02;5.15;;;2.22;;
82372;SDS011;72000;42.828;23.382;2023-08-31T14:12:30;5.88;;;2.70;;
82372;SDS011;72000;42.828;23.382;2023-08-31T14:14:57;6.53;;;2.33;;
82372;SDS011;72000;42.828;23.382;2023-08-31T14:17:23;5.72;;;2.60;;
82372;SDS011;72000;42.828;23.382;2023-08-31T14:19:49;6.45;;;2.45;;
82372;SDS011;72000;42.828;23.382;2023-08-31T14:22:14;4.65;;;2.20;;
82372;SDS011;72000;42.828;23.382;2023-08-31T14:24:40;5.65;;;2.60;;
82372;SDS011;72000;42.828;23.382;2023-08-31T14:27:06;4.88;;;2.20;;
82372;SDS011;72000;42.828;23.382;2023-08-31T14:29:31;5.20;;;2.22;;
82372;SDS011;72000;42.828;23.382;2023-08-31T14:31:57;6.47;;;2.60;;
82372;SDS011;72000;42.828;23.382;2023-08-31T14:34:23;5.70;;;2.30;;
82372;SDS011;72000;42.828;23.382;2023-08-31T14:36:50;6.35;;;2.40;;
82372;SDS011;72000;42.828;23.382;2023-08-31T14:39:16;5.18;;;2.40;;
82372;SDS011;72000;42.828;23.382;2023-08-31T14:41:42;6.80;;;2.60;;
82372;SDS011;72000;42.828;23.382;2023-08-31T14:44:07;5.60;;;2.47;;
82372;SDS011;72000;42.828;23.382;2023-08-31T14:46:33;6.55;;;2.38;;
82372;SDS011;72000;42.828;23.382;2023-08-31T14:48:59;5.47;;;2.28;;
82372;SDS011;72000;42.828;23.382;2023-08-31T14:51:25;5.75;;;2.40;;
82372;SDS011;72000;42.828;23.382;2023-08-31T14:53:50;6.60;;;2.47;;
82372;SDS011;72000;42.828;23.382;2023-08-31T14:56:16;5.07;;;2.08;;
82372;SDS011;72000;42.828;23.382;2023-08-31T14:58:42;6.50;;;2.60;;
82372;SDS011;72000;42.828;23.382;2023-08-31T15:01:07;5.88;;;2.45;;
82372;SDS011;72000;42.828;23.382;2023-08-31T15:03:33;7.43;;;2.50;;
82372;SDS011;72000;42.828;23.382;2023-08-31T15:05:59;6.35;;;2.50;;
82372;SDS011;72000;42.828;23.382;2023-08-31T15:08:37;5.70;;;2.20;;
82372;SDS011;72000;42.828;23.382;2023-08-31T15:11:03;6.05;;;2.38;;
82372;SDS011;72000;42.828;23.382;2023-08-31T15:13:29;7.85;;;2.45;;
82372;SDS011;72000;42.828;23.382;2023-08-31T15:15:55;7.28;;;2.58;;
82372;SDS011;72000;42.828;23.382;2023-08-31T15:18:20;6.57;;;2.42;;
82372;SDS011;72000;42.828;23.382;2023-08-31T15:20:47;4.93;;;2.17;;
82372;SDS011;72000;42.828;23.382;2023-08-31T15:23:12;7.32;;;2.30;;
82372;SDS011;72000;42.828;23.382;2023-08-31T15:25:38;6.10;;;2.28;;
82372;SDS011;72000;42.828;23.382;2023-08-31T15:28:04;7.22;;;2.60;;
82372;SDS011;72000;42.828;23.382;2023-08-31T15:30:30;5.75;;;2.40;;
82372;SDS011;72000;42.828;23.382;2023-08-31T15:33:00;5.43;;;2.28;;
82372;SDS011;72000;42.828;23.382;2023-08-31T15:35:29;5.88;;;2.40;;
82372;SDS011;72000;42.828;23.382;2023-08-31T15:37:55;5.38;;;2.17;;
82372;SDS011;72000;42.828;23.382;2023-08-31T15:40:21;6.85;;;2.53;;
82372;SDS011;72000;42.828;23.382;2023-08-31T15:42:47;5.00;;;2.30;;
82372;SDS011;72000;42.828;23.382;2023-08-31T15:45:13;6.95;;;2.75;;
82372;SDS011;72000;42.828;23.382;2023-08-31T15:47:39;5.22;;;2.10;;
82372;SDS011;72000;42.828;23.382;2023-08-31T15:50:04;6.13;;;2.40;;
82372;SDS011;72000;42.828;23.382;2023-08-31T15:52:31;8.23;;;2.47;;